Time;durP1;ratioP1;P1;durP2;ratioP2;P2;SDS_P1;SDS_P2;PMS_P1;PMS_P2;Temp;Humidity;BMP_temperature;BMP_pressure;BME280_temperature;BME280_humidity;BME280_pressure;Samples;Min_cycle;Max_cycle;Signal;HPM_P1;HPM_P2
2024/01/07 00:02:36;;;;;;;4.18;3.80;;;11.70;59.30;;;;;;4188172;28;20403;-52
2024/01/07 00:05:17;;;;;;;3.95;3.25;;;11.70;60.80;;;;;;4188399;28;20056;-50
2024/01/07 00:07:59;;;;;;;4.72;3.65;;;11.70;60.10;;;;;;4175509;28;20102;-51
2024/01/07 00:10:40;;;;;;;3.88;3.47;;;11.70;58.50;;;;;;4156224;28;20468;-51
2024/01/07 00:13:22;;;;;;;3.40;3.10;;;11.80;58.80;;;;;;4178001;28;20052;-53
2024/01/07 00:16:03;;;;;;;3.17;2.90;;;12.00;58.70;;;;;;4174315;28;20052;-49
2024/01/07 00:18:44;;;;;;;4.03;3.40;;;12.20;59.00;;;;;;4171889;28;20052;-49
2024/01/07 00:21:25;;;;;;;3.20;3.00;;;12.40;59.00;;;;;;4186700;28;20063;-49
2024/01/07 00:24:07;;;;;;;4.03;3.47;;;12.50;58.70;;;;;;4187629;28;20185;-52
2024/01/07 00:26:47;;;;;;;4.20;3.75;;;12.60;58.50;;;;;;4188529;28;20059;-38
2024/01/07 00:29:30;;;;;;;3.22;2.83;;;12.60;56.50;;;;;;4174366;28;20107;-38
2024/01/07 00:32:11;;;;;;;2.92;2.67;;;12.60;57.10;;;;;;4154735;28;20168;-37
2024/01/07 00:34:52;;;;;;;3.70;3.40;;;12.60;57.80;;;;;;4168779;28;20796;-38
2024/01/07 00:37:35;;;;;;;3.53;3.17;;;12.60;56.90;;;;;;4154260;28;20555;-37
2024/01/07 00:40:17;;;;;;;3.72;3.45;;;12.50;57.30;;;;;;4184557;28;20602;-38
2024/01/07 00:42:57;;;;;;;5.00;3.90;;;12.50;58.00;;;;;;4179613;28;20122;-38
2024/01/07 00:45:40;;;;;;;3.75;3.40;;;12.50;58.30;;;;;;4168012;28;20441;-38
2024/01/07 00:48:21;;;;;;;3.75;3.33;;;12.70;57.60;;;;;;4186328;28;20079;-37
2024/01/07 00:51:02;;;;;;;5.78;3.85;;;12.90;56.90;;;;;;4174292;28;20515;-36
2024/01/07 00:53:44;;;;;;;3.63;3.03;;;13.00;56.60;;;;;;4188006;28;20063;-38
2024/01/07 00:56:27;;;;;;;3.42;3.13;;;13.10;56.50;;;;;;4182901;28;20503;-38
2024/01/07 00:59:07;;;;;;;3.85;3.13;;;13.10;56.00;;;;;;4171625;28;20056;-38
2024/01/07 01:01:50;;;;;;;3.90;3.50;;;13.20;57.30;;;;;;4154293;28;20051;-37
2024/01/07 01:04:31;;;;;;;3.45;3.15;;;13.30;56.40;;;;;;4169967;28;20052;-37
2024/01/07 01:07:12;;;;;;;3.80;3.50;;;13.30;56.30;;;;;;4171258;28;20098;-38
2024/01/07 01:09:53;;;;;;;5.57;3.20;;;13.30;56.90;;;;;;4187459;28;20058;-38
2024/01/07 01:12:34;;;;;;;3.30;3.00;;;13.40;56.10;;;;;;4188135;28;20056;-37
2024/01/07 01:15:16;;;;;;;3.75;3.33;;;13.40;55.90;;;;;;4187907;28;20098;-52
2024/01/07 01:17:58;;;;;;;3.55;3.03;;;13.50;56.60;;;;;;4186621;28;20103;-48
2024/01/07 01:20:39;;;;;;;3.97;3.53;;;13.50;55.90;;;;;;4187465;28;20177;-48
2024/01/07 01:23:20;;;;;;;4.25;3.85;;;13.50;55.90;;;;;;4174616;28;20554;-49
2024/01/07 01:26:01;;;;;;;4.78;3.50;;;13.60;55.50;;;;;;4171267;28;20560;-51
2024/01/07 01:28:43;;;;;;;3.95;3.60;;;13.50;54.80;;;;;;4170988;28;20055;-47
2024/01/07 01:31:24;;;;;;;3.80;3.50;;;13.40;55.20;;;;;;4184828;28;20431;-49
2024/01/07 01:34:06;;;;;;;6.78;3.67;;;13.40;55.30;;;;;;4187566;28;20502;-52
2024/01/07 01:36:47;;;;;;;3.20;2.90;;;13.30;56.10;;;;;;4169603;28;20079;-51
2024/01/07 01:39:29;;;;;;;3.58;3.28;;;13.30;57.50;;;;;;4168503;28;20051;-50
2024/01/07 01:42:10;;;;;;;;;;;13.30;57.90;;;;;;4187901;28;20109;-47
2024/01/07 01:44:51;;;;;;;5.32;3.75;;;13.30;56.40;;;;;;4186076;28;19932;-47
2024/01/07 01:47:32;;;;;;;3.42;2.35;;;13.40;54.80;;;;;;4183225;28;20466;-48
2024/01/07 01:50:14;;;;;;;4.18;3.08;;;13.40;55.50;;;;;;4170859;28;20187;-50
2024/01/07 01:52:57;;;;;;;3.97;3.03;;;13.50;55.80;;;;;;4155648;28;20056;-49
2024/01/07 01:55:37;;;;;;;;;;;13.50;55.60;;;;;;4156481;28;20056;-49
2024/01/07 01:58:20;;;;;;;4.20;3.15;;;13.70;55.30;;;;;;4152485;28;19959;-49
2024/01/07 02:01:01;;;;;;;4.97;3.40;;;13.80;54.90;;;;;;4152700;28;20095;-52
2024/01/07 02:03:42;;;;;;;3.53;2.92;;;13.90;54.60;;;;;;4153960;28;20419;-50
2024/01/07 02:06:25;;;;;;;2.83;2.47;;;14.00;53.50;;;;;;4170349;28;20101;-52
2024/01/07 02:09:06;;;;;;;5.03;2.75;;;14.10;55.10;;;;;;4178274;28;20055;-51
2024/01/07 02:12:01;;;;;;;4.00;3.47;;;14.20;53.80;;;;;;4173145;28;20178;-50
2024/01/07 02:14:43;;;;;;;2.70;2.50;;;14.20;53.60;;;;;;4185531;28;20067;-50
2024/01/07 02:17:24;;;;;;;3.60;3.08;;;14.20;53.70;;;;;;4169302;28;20502;-51
2024/01/07 02:20:06;;;;;;;2.47;2.10;;;14.20;54.10;;;;;;4169361;28;20506;-52
2024/01/07 02:22:48;;;;;;;3.10;2.38;;;14.20;53.50;;;;;;4193377;28;20059;-48
2024/01/07 02:25:30;;;;;;;3.78;2.33;;;14.20;53.50;;;;;;4185511;28;20063;-49
2024/01/07 02:28:11;;;;;;;3.00;2.35;;;14.20;53.70;;;;;;4186795;28;20056;-46
2024/01/07 02:30:52;;;;;;;1.98;1.85;;;14.30;52.50;;;;;;4186731;28;20403;-48
2024/01/07 02:33:34;;;;;;;3.42;2.25;;;14.30;52.90;;;;;;4186025;28;20511;-47
2024/01/07 02:36:16;;;;;;;2.83;2.33;;;14.30;52.70;;;;;;4186423;28;20043;-48
2024/01/07 02:38:58;;;;;;;2.60;2.40;;;14.30;51.00;;;;;;4185721;28;20051;-46
2024/01/07 02:41:40;;;;;;;2.58;2.03;;;14.30;53.00;;;;;;4186729;28;20070;-47
2024/01/07 02:44:21;;;;;;;2.20;2.00;;;14.30;51.80;;;;;;4186257;28;20052;-49
2024/01/07 02:47:02;;;;;;;2.47;2.28;;;14.30;52.90;;;;;;4171272;28;20142;-47
2024/01/07 02:49:43;;;;;;;3.22;2.22;;;14.40;51.10;;;;;;4185435;28;20063;-47
2024/01/07 02:52:24;;;;;;;3.35;2.00;;;14.50;51.80;;;;;;4185662;28;20047;-46
2024/01/07 02:55:05;;;;;;;2.53;2.10;;;14.50;51.80;;;;;;4176265;28;20052;-49
2024/01/07 02:57:47;;;;;;;2.88;2.40;;;14.40;51.90;;;;;;4181102;28;20302;-48
2024/01/07 03:00:29;;;;;;;2.08;1.63;;;14.40;53.10;;;;;;4186252;28;20055;-47
2024/01/07 03:03:10;;;;;;;3.90;2.10;;;14.50;51.40;;;;;;4186375;28;20182;-46
2024/01/07 03:05:51;;;;;;;2.88;2.58;;;14.40;52.00;;;;;;4169754;28;20052;-48
2024/01/07 03:08:32;;;;;;;4.38;2.08;;;14.40;52.60;;;;;;4160850;28;20110;-54
2024/01/07 03:11:13;;;;;;;3.17;2.40;;;14.40;50.60;;;;;;4170359;28;20073;-50
2024/01/07 03:13:56;;;;;;;2.17;1.83;;;14.40;52.70;;;;;;4171068;28;20187;-48
2024/01/07 03:16:36;;;;;;;3.08;2.50;;;14.40;54.00;;;;;;4189956;28;20047;-52
2024/01/07 03:19:17;;;;;;;1.90;1.80;;;14.40;53.00;;;;;;4189654;28;20411;-48
2024/01/07 03:21:58;;;;;;;3.53;2.45;;;14.40;52.90;;;;;;4188727;28;20133;-48
2024/01/07 03:24:39;;;;;;;3.53;2.10;;;14.50;53.60;;;;;;4171911;28;20048;-50
2024/01/07 03:27:20;;;;;;;2.28;1.92;;;14.60;51.40;;;;;;4189006;28;20056;-51
2024/01/07 03:30:03;;;;;;;2.40;2.30;;;14.60;52.00;;;;;;4189545;28;20138;-47
2024/01/07 03:32:44;;;;;;;2.25;2.05;;;14.60;52.00;;;;;;4189749;28;20059;-49
2024/01/07 03:35:25;;;;;;;2.13;2.00;;;14.70;52.80;;;;;;4172782;28;20044;-48
2024/01/07 03:38:06;;;;;;;1.90;1.80;;;14.80;51.60;;;;;;4185526;28;20067;-46
2024/01/07 03:40:48;;;;;;;2.03;1.92;;;14.80;51.30;;;;;;4185193;28;20055;-51
2024/01/07 03:43:29;;;;;;;1.83;1.70;;;14.80;52.20;;;;;;4185731;28;20226;-46
2024/01/07 03:46:11;;;;;;;2.65;1.60;;;14.80;51.00;;;;;;4186055;28;20056;-46
2024/01/07 03:48:52;;;;;;;2.35;1.67;;;14.80;50.50;;;;;;4172610;28;20055;-48
2024/01/07 03:51:33;;;;;;;2.42;1.50;;;14.70;50.70;;;;;;4172946;28;20222;-52
2024/01/07 03:54:14;;;;;;;1.92;1.77;;;14.70;51.00;;;;;;4172194;28;20111;-46
2024/01/07 03:56:55;;;;;;;2.00;1.67;;;14.50;50.00;;;;;;4188986;28;20047;-51
2024/01/07 03:59:36;;;;;;;2.50;1.70;;;14.40;51.40;;;;;;4173130;28;20496;-47
2024/01/07 04:02:19;;;;;;;1.80;1.70;;;14.20;51.60;;;;;;4172708;28;20490;-51
2024/01/07 04:05:00;;;;;;;1.60;1.50;;;14.10;52.60;;;;;;4172860;28;20056;-49
2024/01/07 04:07:41;;;;;;;1.75;1.40;;;14.10;53.20;;;;;;4172554;28;20056;-48
2024/01/07 04:10:22;;;;;;;2.20;1.92;;;14.10;53.30;;;;;;4171839;28;20516;-47
2024/01/07 04:13:03;;;;;;;1.80;1.70;;;14.00;51.80;;;;;;4172899;28;20048;-49
2024/01/07 04:15:44;;;;;;;2.15;1.73;;;14.00;50.70;;;;;;4189095;28;20055;-47
2024/01/07 04:18:26;;;;;;;1.40;1.30;;;14.00;51.50;;;;;;4189136;28;20051;-50
2024/01/07 04:21:10;;;;;;;2.65;1.63;;;14.10;51.40;;;;;;4182634;28;20110;-48
2024/01/07 04:23:51;;;;;;;1.75;1.63;;;14.30;52.00;;;;;;4172499;28;20052;-49
2024/01/07 04:26:32;;;;;;;2.35;1.70;;;14.40;51.70;;;;;;4171031;28;20048;-51
2024/01/07 04:29:13;;;;;;;1.67;1.58;;;14.50;50.00;;;;;;4172037;28;20091;-50
2024/01/07 04:31:54;;;;;;;1.55;1.30;;;14.50;50.70;;;;;;4161467;28;20060;-47
2024/01/07 04:34:37;;;;;;;2.90;1.70;;;14.50;50.10;;;;;;4171442;28;20056;-48
2024/01/07 04:37:18;;;;;;;2.15;1.20;;;14.50;50.10;;;;;;4172772;28;20183;-48
2024/01/07 04:39:59;;;;;;;3.17;1.40;;;14.40;50.30;;;;;;4168234;28;20060;-47
2024/01/07 04:42:40;;;;;;;2.42;1.27;;;14.50;52.40;;;;;;4188096;28;20070;-47
2024/01/07 04:45:21;;;;;;;1.48;1.13;;;14.40;51.20;;;;;;4188271;28;20051;-47
2024/01/07 04:48:03;;;;;;;1.20;1.10;;;14.40;50.60;;;;;;4188731;28;20052;-51
2024/01/07 04:50:45;;;;;;;1.75;1.35;;;14.30;50.30;;;;;;4170471;28;20044;-48
2024/01/07 04:53:26;;;;;;;1.23;1.13;;;14.20;51.60;;;;;;4161161;28;20515;-46
2024/01/07 04:56:08;;;;;;;2.72;1.08;;;14.10;52.30;;;;;;4181058;28;20051;-47
2024/01/07 04:58:48;;;;;;;2.80;1.63;;;14.10;50.60;;;;;;4188546;28;20605;-48
2024/01/07 05:01:29;;;;;;;2.92;1.30;;;14.10;52.50;;;;;;4187565;28;20052;-48
2024/01/07 05:04:10;;;;;;;2.25;1.42;;;14.10;52.00;;;;;;4187534;28;20051;-48
2024/01/07 05:06:53;;;;;;;1.48;1.25;;;14.20;52.00;;;;;;4187377;28;20198;-48
2024/01/07 05:09:34;;;;;;;3.20;1.10;;;14.20;52.10;;;;;;4186523;28;20055;-48
2024/01/07 05:12:15;;;;;;;;;;;14.30;51.10;;;;;;4179942;28;20415;-48
2024/01/07 05:14:56;;;;;;;1.27;1.10;;;14.30;51.30;;;;;;4170499;28;20058;-48
2024/01/07 05:17:37;;;;;;;1.85;1.15;;;14.20;51.50;;;;;;4187124;28;20059;-51
2024/01/07 05:20:18;;;;;;;2.25;1.30;;;14.20;50.70;;;;;;4170942;28;20067;-48
2024/01/07 05:23:00;;;;;;;1.10;1.00;;;14.20;50.10;;;;;;4173619;28;20563;-51
2024/01/07 05:25:43;;;;;;;1.83;1.20;;;14.10;50.40;;;;;;4186819;28;20157;-48
2024/01/07 05:28:25;;;;;;;1.00;1.00;;;14.10;52.10;;;;;;4187633;28;20486;-49
2024/01/07 05:31:06;;;;;;;1.38;1.13;;;14.10;50.40;;;;;;4170963;28;20112;-47
2024/01/07 05:33:47;;;;;;;2.00;1.00;;;14.20;50.00;;;;;;4171016;28;20507;-48
2024/01/07 05:36:28;;;;;;;2.30;1.33;;;14.20;50.40;;;;;;4170061;28;20061;-48
2024/01/07 05:39:10;;;;;;;0.93;0.93;;;14.20;50.30;;;;;;4170116;28;20114;-47
2024/01/07 05:41:51;;;;;;;1.83;1.10;;;14.30;51.00;;;;;;4187330;28;20509;-47
2024/01/07 05:44:32;;;;;;;2.38;1.02;;;14.50;49.20;;;;;;4187277;28;20518;-51
2024/01/07 05:47:14;;;;;;;1.05;0.73;;;14.60;49.80;;;;;;4186669;28;20128;-50
2024/01/07 05:49:55;;;;;;;1.35;1.20;;;14.70;49.20;;;;;;4186277;28;20506;-48
2024/01/07 05:52:36;;;;;;;0.85;0.85;;;14.80;47.70;;;;;;4186603;28;20055;-46
2024/01/07 05:55:19;;;;;;;1.40;0.80;;;14.80;47.60;;;;;;4170316;28;20178;-50
2024/01/07 05:58:00;;;;;;;1.10;1.00;;;14.80;47.70;;;;;;4155310;28;20651;-48
2024/01/07 06:00:41;;;;;;;0.98;0.93;;;14.80;47.50;;;;;;4169992;28;20419;-47
2024/01/07 06:03:22;;;;;;;1.05;0.90;;;14.90;48.00;;;;;;4170241;28;20134;-48
2024/01/07 06:06:03;;;;;;;1.52;1.25;;;14.90;47.40;;;;;;4153573;28;20053;-48
2024/01/07 06:08:44;;;;;;;1.20;1.10;;;15.00;47.40;;;;;;4153590;28;20558;-51
2024/01/07 06:11:27;;;;;;;1.30;1.05;;;15.00;46.90;;;;;;4152109;28;20056;-49
2024/01/07 06:14:08;;;;;;;2.22;0.85;;;15.00;46.90;;;;;;4122948;28;20053;-50
2024/01/07 06:16:49;;;;;;;2.38;1.13;;;14.90;45.60;;;;;;4137234;28;20104;-49
2024/01/07 06:19:31;;;;;;;1.10;0.75;;;14.80;46.50;;;;;;4144683;28;20075;-46
2024/01/07 06:22:11;;;;;;;;;;;14.70;47.70;;;;;;4152680;28;20126;-45
2024/01/07 06:24:53;;;;;;;1.70;1.00;;;14.80;47.30;;;;;;4153391;28;19943;-47
2024/01/07 06:27:35;;;;;;;2.67;1.60;;;14.80;47.70;;;;;;4163543;28;20060;-54
2024/01/07 06:30:16;;;;;;;1.48;1.10;;;14.90;47.80;;;;;;4139398;28;20043;-54
2024/01/07 06:32:57;;;;;;;3.10;1.08;;;15.00;45.50;;;;;;4153280;28;20927;-48
2024/01/07 06:35:38;;;;;;;1.10;1.00;;;15.00;46.10;;;;;;4153985;28;20184;-49
2024/01/07 06:38:20;;;;;;;3.22;1.05;;;14.90;46.70;;;;;;4153922;28;20052;-48
2024/01/07 06:41:03;;;;;;;0.77;0.77;;;14.90;46.40;;;;;;4153465;28;20048;-48
2024/01/07 06:43:46;;;;;;;1.45;1.30;;;15.00;46.10;;;;;;4153305;28;20212;-48
2024/01/07 06:46:27;;;;;;;0.85;0.85;;;15.00;45.90;;;;;;4152115;28;20060;-48
2024/01/07 06:49:09;;;;;;;0.90;0.90;;;15.00;45.40;;;;;;4155609;28;20072;-47
2024/01/07 06:51:50;;;;;;;1.08;0.77;;;15.00;45.40;;;;;;4156245;28;20055;-51
2024/01/07 06:54:31;;;;;;;0.98;0.98;;;14.90;45.20;;;;;;4156706;28;20061;-47
2024/01/07 06:57:12;;;;;;;0.80;0.80;;;14.90;44.70;;;;;;4156244;28;20049;-50
2024/01/07 06:59:54;;;;;;;1.05;1.00;;;14.90;44.90;;;;;;4156498;28;20051;-49
2024/01/07 07:02:36;;;;;;;0.80;0.60;;;14.90;45.20;;;;;;4155576;28;20056;-52
2024/01/07 07:05:17;;;;;;;5.10;0.85;;;14.90;46.20;;;;;;4188003;28;20063;-49
2024/01/07 07:07:58;;;;;;;2.03;0.80;;;14.90;46.10;;;;;;4173415;28;20052;-52
2024/01/07 07:10:39;;;;;;;0.63;0.63;;;14.80;45.20;;;;;;4188790;28;20544;-50
2024/01/07 07:13:20;;;;;;;1.02;1.00;;;14.70;44.80;;;;;;4189666;28;20059;-52
2024/01/07 07:16:02;;;;;;;1.25;1.00;;;14.60;44.70;;;;;;4189934;28;20595;-52
2024/01/07 07:18:43;;;;;;;1.67;0.88;;;14.50;44.80;;;;;;4189242;28;20590;-48
2024/01/07 07:21:24;;;;;;;1.33;1.00;;;14.60;44.70;;;;;;4182536;28;20056;-51
2024/01/07 07:24:06;;;;;;;1.85;1.10;;;14.60;45.40;;;;;;4173362;28;20056;-51
2024/01/07 07:26:47;;;;;;;0.90;0.90;;;14.60;44.80;;;;;;4172056;28;20059;-50
2024/01/07 07:29:28;;;;;;;0.80;0.80;;;14.70;45.60;;;;;;4172335;28;20191;-48
2024/01/07 07:32:10;;;;;;;1.08;0.95;;;14.70;45.20;;;;;;4167062;28;20412;-48
2024/01/07 07:34:51;;;;;;;0.98;0.80;;;14.70;44.50;;;;;;4171557;28;20183;-49
2024/01/07 07:37:32;;;;;;;1.25;1.15;;;14.60;45.50;;;;;;4185998;28;20265;-52
2024/01/07 07:40:14;;;;;;;0.80;0.80;;;14.60;46.10;;;;;;4189368;28;20111;-47
2024/01/07 07:42:55;;;;;;;1.70;1.05;;;14.60;46.90;;;;;;4189265;28;20055;-49
2024/01/07 07:45:36;;;;;;;0.85;0.82;;;14.60;47.00;;;;;;4189505;28;20097;-52
2024/01/07 07:48:19;;;;;;;1.10;1.00;;;14.50;47.60;;;;;;4172802;28;20056;-47
2024/01/07 07:51:00;;;;;;;1.20;1.10;;;14.40;47.90;;;;;;4172545;28;20333;-50
2024/01/07 07:53:41;;;;;;;2.05;0.90;;;14.20;48.80;;;;;;4180796;28;20052;-49
2024/01/07 07:56:22;;;;;;;1.33;1.00;;;14.20;49.20;;;;;;4156087;28;20180;-50
2024/01/07 07:59:03;;;;;;;0.95;0.95;;;14.10;48.30;;;;;;4171926;28;20134;-49
2024/01/07 08:01:44;;;;;;;0.95;0.90;;;14.20;48.30;;;;;;4172495;28;20048;-51
2024/01/07 08:04:27;;;;;;;0.98;0.98;;;14.30;48.60;;;;;;4155813;28;20060;-49
2024/01/07 08:07:09;;;;;;;1.13;1.00;;;14.40;49.10;;;;;;4181347;28;20075;-51
2024/01/07 08:09:49;;;;;;;;;;;14.50;47.40;;;;;;4182267;28;20063;-49
2024/01/07 08:12:30;;;;;;;0.82;0.82;;;14.70;45.70;;;;;;4180386;28;19959;-50
2024/01/07 08:15:12;;;;;;;1.52;1.08;;;14.80;49.60;;;;;;4186055;28;20105;-46
2024/01/07 08:17:54;;;;;;;1.20;1.08;;;15.00;47.10;;;;;;4188385;28;20055;-37
2024/01/07 08:20:36;;;;;;;1.05;1.05;;;15.10;47.20;;;;;;4188396;28;20064;-38
2024/01/07 08:23:17;;;;;;;1.42;1.23;;;15.10;46.00;;;;;;4188792;28;20185;-38
2024/01/07 08:25:58;;;;;;;1.20;1.00;;;15.10;46.70;;;;;;4188021;28;20131;-38
2024/01/07 08:28:40;;;;;;;4.03;1.00;;;15.10;46.20;;;;;;4187615;28;20052;-38
2024/01/07 08:31:21;;;;;;;1.55;0.70;;;15.20;46.20;;;;;;4181703;28;20055;-38
2024/01/07 08:34:02;;;;;;;1.27;0.68;;;15.20;46.00;;;;;;4181498;28;20132;-38
2024/01/07 08:36:44;;;;;;;0.90;0.90;;;15.20;46.30;;;;;;4188252;28;20052;-38
2024/01/07 08:39:28;;;;;;;1.45;1.35;;;15.20;47.70;;;;;;4187812;28;20415;-38
2024/01/07 08:42:09;;;;;;;1.38;1.27;;;15.30;49.20;;;;;;4184292;28;20047;-37
2024/01/07 08:44:50;;;;;;;2.22;0.88;;;15.50;48.50;;;;;;4187135;28;20171;-37
2024/01/07 08:47:31;;;;;;;1.23;1.10;;;15.50;45.10;;;;;;4188081;28;20105;-38
2024/01/07 08:50:17;;;;;;;1.10;0.75;;;15.50;47.00;;;;;;4188351;28;20051;-38
2024/01/07 08:52:59;;;;;;;1.75;1.10;;;15.50;46.10;;;;;;4182248;28;20134;-37
2024/01/07 08:55:43;;;;;;;1.00;1.00;;;15.40;47.20;;;;;;4172046;28;20072;-38
2024/01/07 08:58:24;;;;;;;1.55;1.05;;;15.40;47.40;;;;;;4185056;28;20536;-38
2024/01/07 09:01:05;;;;;;;1.88;1.23;;;15.40;46.80;;;;;;4172213;28;20051;-38
2024/01/07 09:03:46;;;;;;;0.90;0.90;;;15.30;46.60;;;;;;4187356;28;20063;-38
2024/01/07 09:06:27;;;;;;;1.40;1.20;;;15.40;49.20;;;;;;4154931;28;20072;-38
2024/01/07 09:09:10;;;;;;;1.35;1.10;;;15.40;47.80;;;;;;4176202;28;20124;-38
2024/01/07 09:11:53;;;;;;;1.45;1.20;;;15.50;49.70;;;;;;4154384;28;20057;-39
2024/01/07 09:14:34;;;;;;;2.15;0.90;;;15.60;48.50;;;;;;4171539;28;20060;-38
2024/01/07 09:17:17;;;;;;;1.10;1.10;;;15.50;49.60;;;;;;4180813;28;20060;-38
2024/01/07 09:19:57;;;;;;;2.42;1.20;;;15.50;48.80;;;;;;4174005;28;20614;-39
2024/01/07 09:22:39;;;;;;;2.30;1.17;;;15.40;48.50;;;;;;4182186;28;20384;-39
2024/01/07 09:25:21;;;;;;;2.55;1.35;;;15.20;48.20;;;;;;4186151;28;20056;-39
2024/01/07 09:28:02;;;;;;;1.60;1.00;;;15.10;50.20;;;;;;4187756;28;20384;-39
2024/01/07 09:30:43;;;;;;;;;;;15.00;49.90;;;;;;4175423;28;20571;-38
2024/01/07 09:33:32;;;;;;;2.40;1.20;;;15.00;50.60;;;;;;4231315;27;20744;-38
2024/01/07 09:36:14;;;;;;;1.45;1.30;;;14.90;50.50;;;;;;4217729;27;20108;-38
2024/01/07 09:39:01;;;;;;;1.15;1.15;;;14.80;50.00;;;;;;4224464;27;20481;-38
2024/01/07 09:41:42;;;;;;;;;;;14.80;49.10;;;;;;4201441;28;20544;-38
2024/01/07 09:44:23;;;;;;;1.95;1.23;;;15.00;51.80;;;;;;4200806;28;19966;-38
2024/01/07 09:47:06;;;;;;;1.42;1.23;;;15.40;51.30;;;;;;4201080;28;20082;-38
2024/01/07 09:49:48;;;;;;;2.60;1.40;;;15.90;50.60;;;;;;4218405;27;20063;-39
2024/01/07 09:52:30;;;;;;;1.20;1.10;;;16.40;47.30;;;;;;4217696;27;20055;-39
2024/01/07 09:55:16;;;;;;;2.20;1.23;;;16.90;45.50;;;;;;4232916;27;20097;-39
2024/01/07 09:57:57;;;;;;;1.50;1.17;;;17.40;46.20;;;;;;4234360;27;20127;-38
2024/01/07 10:00:39;;;;;;;1.38;1.13;;;17.90;43.50;;;;;;4217827;27;20047;-48
2024/01/07 10:03:20;;;;;;;1.20;1.10;;;18.30;45.60;;;;;;4208282;27;20125;-49
2024/01/07 10:06:03;;;;;;;1.92;1.20;;;18.70;43.90;;;;;;4221483;27;20080;-46
2024/01/07 10:08:43;;;;;;;1.67;1.58;;;18.80;43.10;;;;;;4232961;27;20058;-48
2024/01/07 10:11:24;;;;;;;3.47;1.33;;;19.00;42.70;;;;;;4234275;27;20883;-48
2024/01/07 10:14:06;;;;;;;5.68;4.20;;;19.10;43.20;;;;;;4217980;27;20193;-47
2024/01/07 10:16:47;;;;;;;1.80;1.20;;;19.10;43.10;;;;;;4217556;27;20556;-48
2024/01/07 10:19:28;;;;;;;1.13;1.00;;;19.00;39.80;;;;;;4216500;27;20432;-47
2024/01/07 10:22:14;;;;;;;1.40;1.30;;;18.80;39.80;;;;;;4200860;28;20151;-49
2024/01/07 10:24:55;;;;;;;1.92;1.55;;;18.50;43.10;;;;;;4208310;27;20066;-47
2024/01/07 10:27:37;;;;;;;1.45;1.20;;;18.30;43.60;;;;;;4222223;27;20174;-50
2024/01/07 10:30:19;;;;;;;1.58;1.30;;;18.10;43.30;;;;;;4217217;27;20058;-49
2024/01/07 10:33:00;;;;;;;2.63;1.17;;;18.00;42.90;;;;;;4217898;27;20058;-48
2024/01/07 10:35:48;;;;;;;4.85;3.67;;;17.80;43.30;;;;;;4204622;27;20047;-48
2024/01/07 10:38:30;;;;;;;2.33;1.92;;;17.80;46.10;;;;;;4200532;27;20047;-47
2024/01/07 10:41:12;;;;;;;3.42;1.13;;;17.80;45.40;;;;;;4227389;27;20164;-46
2024/01/07 10:43:54;;;;;;;1.50;1.35;;;17.80;46.20;;;;;;4228023;27;20437;-50
2024/01/07 10:46:35;;;;;;;2.22;1.10;;;17.80;44.70;;;;;;4205597;27;20047;-50
2024/01/07 10:49:21;;;;;;;2.25;1.30;;;17.80;45.30;;;;;;4213286;27;20102;-50
2024/01/07 10:52:05;;;;;;;1.33;1.20;;;17.80;45.90;;;;;;4222227;27;20060;-50
2024/01/07 10:54:48;;;;;;;0.80;0.80;;;17.80;44.00;;;;;;4206025;28;20055;-51
2024/01/07 10:57:37;;;;;;;1.20;1.05;;;17.90;45.80;;;;;;4205791;28;20181;-48
2024/01/07 11:00:22;;;;;;;3.40;2.13;;;17.90;45.00;;;;;;4205144;28;20059;-52
2024/01/07 11:03:11;;;;;;;2.92;1.52;;;17.90;46.80;;;;;;4205234;28;20173;-48
2024/01/07 11:05:57;;;;;;;6.80;3.60;;;17.90;46.40;;;;;;4215876;27;20739;-47
2024/01/07 11:08:46;;;;;;;3.20;2.83;;;18.00;47.40;;;;;;4222322;27;20117;-50
2024/01/07 11:11:35;;;;;;;2.25;2.03;;;18.00;47.00;;;;;;4222125;27;20193;-47
2024/01/07 11:14:36;;;;;;;4.88;3.72;;;18.10;47.00;;;;;;4207136;27;20054;-50
2024/01/07 11:17:45;;;;;;;4.63;2.00;;;18.10;45.70;;;;;;4204882;28;20051;-48
2024/01/07 11:20:27;;;;;;;2.28;1.75;;;18.20;46.60;;;;;;4204161;28;20500;-50
2024/01/07 11:23:27;;;;;;;1.90;1.80;;;18.20;43.30;;;;;;4188725;28;20202;-48
2024/01/07 11:26:09;;;;;;;2.30;1.75;;;18.20;45.40;;;;;;4187099;28;20044;-49
2024/01/07 11:28:54;;;;;;;2.78;2.38;;;18.20;44.90;;;;;;4194537;28;20082;-51
2024/01/07 11:31:47;;;;;;;7.15;3.97;;;18.20;46.40;;;;;;4204719;28;20157;-49
2024/01/07 11:34:41;;;;;;;3.38;2.80;;;18.20;45.50;;;;;;4204081;28;20097;-48
2024/01/07 11:37:22;;;;;;;2.90;2.70;;;18.30;45.80;;;;;;4205074;28;20080;-49
2024/01/07 11:40:06;;;;;;;2.17;1.95;;;18.30;46.60;;;;;;4204889;28;20407;-47
2024/01/07 11:42:48;;;;;;;3.08;2.42;;;18.20;46.30;;;;;;4216481;27;20100;-49
2024/01/07 11:45:32;;;;;;;4.97;2.55;;;18.10;46.60;;;;;;4219767;27;20117;-51
2024/01/07 11:48:13;;;;;;;6.40;3.38;;;18.10;46.00;;;;;;4202827;27;20110;-50
2024/01/07 11:50:54;;;;;;;4.90;2.92;;;18.10;47.50;;;;;;4198410;28;20197;-51
2024/01/07 11:53:36;;;;;;;2.67;2.25;;;18.10;47.00;;;;;;4187880;28;20048;-49
2024/01/07 11:56:18;;;;;;;2.20;2.10;;;18.10;46.80;;;;;;4186856;28;20059;-48
2024/01/07 11:58:59;;;;;;;3.00;2.40;;;18.10;46.60;;;;;;4203480;28;20055;-49
2024/01/07 12:01:42;;;;;;;3.60;2.53;;;18.10;47.20;;;;;;4204587;28;20075;-51
2024/01/07 12:04:23;;;;;;;2.92;2.00;;;18.10;48.10;;;;;;4203893;28;20097;-49
2024/01/07 12:07:06;;;;;;;3.15;2.22;;;18.10;47.70;;;;;;4204662;28;20505;-52
2024/01/07 12:09:47;;;;;;;3.17;2.03;;;18.10;48.10;;;;;;4203962;28;20051;-48
2024/01/07 12:12:28;;;;;;;3.33;2.00;;;18.10;48.20;;;;;;4203500;28;20088;-47
2024/01/07 12:15:11;;;;;;;1.95;1.75;;;18.00;47.00;;;;;;4203975;28;20407;-50
2024/01/07 12:18:01;;;;;;;2.15;2.05;;;18.00;46.40;;;;;;4204247;28;20513;-49
2024/01/07 12:20:42;;;;;;;2.47;1.48;;;18.00;46.90;;;;;;4204011;28;20051;-49
2024/01/07 12:23:23;;;;;;;2.80;2.60;;;18.00;48.30;;;;;;4221477;27;20188;-48
2024/01/07 12:26:09;;;;;;;3.42;2.17;;;18.00;49.00;;;;;;4220986;27;20042;-46
2024/01/07 12:28:54;;;;;;;1.90;1.80;;;18.10;49.70;;;;;;4203978;28;20383;-48
2024/01/07 12:31:35;;;;;;;2.55;1.80;;;18.10;48.70;;;;;;4212717;27;20042;-48
2024/01/07 12:34:18;;;;;;;1.90;1.70;;;18.20;49.10;;;;;;4220756;27;20100;-47
2024/01/07 12:37:01;;;;;;;3.75;2.30;;;18.30;48.30;;;;;;4220470;27;20050;-50
2024/01/07 12:39:43;;;;;;;2.75;2.55;;;18.30;50.30;;;;;;4209439;27;20058;-49
2024/01/07 12:42:24;;;;;;;3.38;2.95;;;18.40;49.50;;;;;;4219232;27;20148;-48
2024/01/07 12:45:06;;;;;;;3.20;2.55;;;18.40;49.20;;;;;;4220868;27;20051;-47
2024/01/07 12:47:47;;;;;;;3.90;2.10;;;18.30;49.90;;;;;;4220495;27;20515;-46
2024/01/07 12:50:31;;;;;;;;;;;18.30;50.00;;;;;;4220552;27;20063;-46
2024/01/07 12:53:12;;;;;;;4.20;2.28;;;18.20;50.30;;;;;;4219199;27;19927;-48
2024/01/07 12:55:54;;;;;;;2.80;2.25;;;18.00;50.60;;;;;;4208640;27;20212;-49
2024/01/07 12:58:35;;;;;;;3.53;2.38;;;18.00;48.80;;;;;;4203339;28;20570;-49
2024/01/07 13:01:16;;;;;;;2.95;2.63;;;18.00;50.10;;;;;;4187005;28;20568;-51
2024/01/07 13:03:57;;;;;;;3.60;2.92;;;18.20;51.30;;;;;;4187399;28;20059;-46
2024/01/07 13:06:39;;;;;;;4.50;3.30;;;18.20;50.50;;;;;;4203505;28;20176;-46
2024/01/07 13:09:21;;;;;;;6.22;3.28;;;18.20;51.70;;;;;;4186985;28;20114;-47
2024/01/07 13:12:02;;;;;;;2.88;2.58;;;18.20;51.50;;;;;;4187745;27;20056;-47
2024/01/07 13:14:43;;;;;;;5.25;3.28;;;18.30;50.60;;;;;;4186630;27;20056;-47
2024/01/07 13:17:24;;;;;;;5.55;3.05;;;18.40;50.70;;;;;;4200452;28;20067;-50
2024/01/07 13:20:11;;;;;;;5.57;3.00;;;18.50;52.20;;;;;;4199476;28;20051;-47
2024/01/07 13:22:53;;;;;;;3.83;3.00;;;18.50;52.80;;;;;;4202847;28;20066;-47
2024/01/07 13:25:34;;;;;;;6.30;3.20;;;18.60;52.00;;;;;;4202249;28;20051;-48
2024/01/07 13:28:15;;;;;;;6.30;4.25;;;18.60;52.60;;;;;;4203122;28;20100;-48
2024/01/07 13:30:56;;;;;;;4.22;3.58;;;18.70;52.40;;;;;;4209457;27;20088;-47
2024/01/07 13:33:37;;;;;;;5.15;3.20;;;18.80;52.70;;;;;;4219626;27;20062;-51
2024/01/07 13:36:19;;;;;;;4.38;2.85;;;18.90;52.90;;;;;;4219916;27;20058;-46
2024/01/07 13:39:01;;;;;;;6.20;3.15;;;18.90;50.70;;;;;;4220316;27;20184;-48
2024/01/07 13:41:43;;;;;;;3.63;3.33;;;18.80;49.10;;;;;;4220113;27;20070;-47
2024/01/07 13:44:23;;;;;;;3.85;3.20;;;18.80;51.90;;;;;;4220388;27;20108;-47
2024/01/07 13:47:05;;;;;;;3.40;2.78;;;18.80;50.70;;;;;;4206928;27;20051;-47
2024/01/07 13:49:46;;;;;;;;;;;18.70;50.50;;;;;;4204163;28;20063;-48
2024/01/07 13:52:29;;;;;;;4.13;3.22;;;18.70;50.10;;;;;;4203065;28;19927;-51
2024/01/07 13:55:13;;;;;;;6.30;3.63;;;18.60;51.50;;;;;;4202835;28;20055;-48
2024/01/07 13:57:54;;;;;;;3.90;3.40;;;18.60;52.70;;;;;;4209831;27;20096;-49
2024/01/07 14:00:35;;;;;;;3.90;3.13;;;18.60;52.90;;;;;;4216530;27;20054;-47
2024/01/07 14:03:17;;;;;;;4.97;3.67;;;18.50;52.80;;;;;;4208217;27;20506;-50
2024/01/07 14:05:58;;;;;;;6.60;3.83;;;18.50;52.60;;;;;;4201935;28;20129;-46